Flugplatz Lhfm Westungarn (EBAR)

Hier findest Du alle Informationen zum Flugplatz Lhfm Westungarn (EBAR).

Informationen für Piloten zum Flugplatz Lhfm Westungarn

Hier findest Du alle relevanten Informationen, die Du als Pilot benötigst, um Lhfm Westungarn anzufliegen.

Flugplatz: Lhfm Westungarn ICAO-Code: EBAR
Frequenz Turm: 118500 Mhz GAFOR Gebiet: -
Frequenz Ground: 118500 Mhz Mogas: nein
Platzrunde: O 1200 ft Landegebühr: -
Platzhöhe: - Sunrise: 03:49 Uhr UTC
Pisten: 16/34 - 1400 m x 30 m, ASPH Sunset: 19:16 Uhr UTC

Flugwetter am Flugplatz Lhfm Westungarn

Die METAR Information stammen aus EDDR (101.38 km entfernt).

METAR Code:
2021/04/20 10:50
EDDR 201050Z 11005KT 010V170 9999 SCT032 13/05 Q1017 NOSIG

Flugschulen am Flugplatz Lhfm Westungarn

Am Flugplatz Lhfm Westungarn gibt es leider keine Flugschule.

Benachbarte Flugplätze und Flugschulen

Es gibt 6 weitere Flugplätze in einem Umkreis von 50 km um den Flugplatz Lhfm Westungarn.

Jetzt anmelden

Passwort vergessen

Umfrage Archiv

Seid Ihr aufgrund von Corona im Jahr 2020 mehr oder weniger geflogen als im Jahr zuvor?

weniger
56.4 %
gleich viel
26.6 %
mehr
17 %
Stimmen: 218 | Diskussion
Anzeige: Roland Aircraft
Statistik Alle Mitglieder

Aktuell sind 54 Besucher online, davon 2 Mitglieder und 52 Gäste.


Mitglieder online:
elanbaby  mikemike 

Anzeige: VFR Sprechfunk Simulator


Anzeige: Pocket FMS